WAT4221 EFHK-ENVA
Flight info
| Callsign | WAT4221 |
|---|---|
| Flight time | 1h 17m |
| Altitude | 32000 |
| Route | NEPEK Y357 EVLIT DCT OLGUV DCT VEVOD |
| Aircraft | B738/M-SDE2E3FGHIRWXY/LB1 |
Departure
| Time | 2026-04-22 15:04 |
|---|---|
| Airport | Helsinki Vantaa Airport (EFHK) |
Arrival
| Time | 2026-04-22 16:21 |
|---|---|
| Airport | Trondheim Airport, Værnes (ENVA) |
| Time | Latitude | Longitude | Altitude | Speed | Heading |
|---|---|---|---|---|---|
| 2026-04-22 14:33 | 60.31865 | 24.97004 | 160 ft | 0 kts | 244° |
| 2026-04-22 14:53 | 60.31874 | 24.97045 | 160 ft | 4 kts | 253° |
| 2026-04-22 14:53 | 60.31878 | 24.97097 | 160 ft | 4 kts | 275° |
| 2026-04-22 14:54 | 60.31871 | 24.97145 | 160 ft | 4 kts | 318° |
| 2026-04-22 14:54 | 60.31864 | 24.97156 | 160 ft | 1 kts | 333° |
| 2026-04-22 14:57 | 60.31864 | 24.97155 | 160 ft | 1 kts | 333° |
| 2026-04-22 14:57 | 60.31907 | 24.97111 | 160 ft | 13 kts | 332° |
| 2026-04-22 14:57 | 60.31991 | 24.97018 | 160 ft | 14 kts | 329° |
| 2026-04-22 14:58 | 60.32073 | 24.96934 | 160 ft | 13 kts | 332° |
| 2026-04-22 14:58 | 60.32152 | 24.96847 | 160 ft | 13 kts | 330° |
| 2026-04-22 14:58 | 60.32226 | 24.96753 | 160 ft | 12 kts | 325° |
| 2026-04-22 14:58 | 60.32297 | 24.96660 | 160 ft | 12 kts | 330° |
| 2026-04-22 14:59 | 60.32371 | 24.96584 | 161 ft | 12 kts | 332° |
| 2026-04-22 14:59 | 60.32445 | 24.96502 | 160 ft | 14 kts | 330° |
| 2026-04-22 14:59 | 60.32538 | 24.96393 | 160 ft | 16 kts | 329° |
| 2026-04-22 14:59 | 60.32629 | 24.96285 | 160 ft | 15 kts | 330° |
| 2026-04-22 15:00 | 60.32716 | 24.96184 | 160 ft | 14 kts | 329° |
| 2026-04-22 15:00 | 60.32802 | 24.96090 | 160 ft | 14 kts | 332° |
| 2026-04-22 15:00 | 60.32883 | 24.95997 | 160 ft | 13 kts | 324° |
| 2026-04-22 15:00 | 60.32959 | 24.95901 | 160 ft | 13 kts | 332° |
| 2026-04-22 15:01 | 60.33044 | 24.95802 | 160 ft | 16 kts | 329° |
| 2026-04-22 15:01 | 60.33129 | 24.95662 | 160 ft | 16 kts | 319° |
| 2026-04-22 15:01 | 60.33202 | 24.95508 | 160 ft | 15 kts | 295° |
| 2026-04-22 15:01 | 60.33177 | 24.95327 | 160 ft | 14 kts | 223° |
| 2026-04-22 15:02 | 60.33117 | 24.95174 | 160 ft | 14 kts | 244° |
| 2026-04-22 15:02 | 60.33108 | 24.94991 | 160 ft | 13 kts | 274° |
| 2026-04-22 15:02 | 60.33113 | 24.94810 | 160 ft | 13 kts | 274° |
| 2026-04-22 15:02 | 60.33117 | 24.94608 | 163 ft | 15 kts | 273° |
| 2026-04-22 15:03 | 60.33111 | 24.94404 | 172 ft | 15 kts | 250° |
| 2026-04-22 15:03 | 60.33012 | 24.94158 | 177 ft | 46 kts | 227° |
| 2026-04-22 15:03 | 60.32624 | 24.93311 | 169 ft | 116 kts | 227° |
| 2026-04-22 15:03 | 60.31962 | 24.91801 | 233 ft | 163 kts | 236° |
| 2026-04-22 15:04 | 60.31236 | 24.90032 | 958 ft | 166 kts | 239° |
| 2026-04-22 15:04 | 60.30474 | 24.88158 | 1604 ft | 177 kts | 239° |
| 2026-04-22 15:04 | 60.29814 | 24.86126 | 2306 ft | 175 kts | 262° |
| 2026-04-22 15:04 | 60.29813 | 24.83708 | 2802 ft | 172 kts | 296° |
| 2026-04-22 15:05 | 60.30404 | 24.81628 | 3317 ft | 179 kts | 307° |
| 2026-04-22 15:05 | 60.31079 | 24.79381 | 3713 ft | 193 kts | 302° |
| 2026-04-22 15:05 | 60.31681 | 24.76829 | 3995 ft | 212 kts | 301° |
| 2026-04-22 15:05 | 60.32407 | 24.74130 | 4411 ft | 229 kts | 303° |
| 2026-04-22 15:06 | 60.32955 | 24.72215 | 4756 ft | 237 kts | 304° |
| 2026-04-22 15:06 | 60.34091 | 24.68371 | 5654 ft | 245 kts | 306° |
| 2026-04-22 15:06 | 60.34995 | 24.65407 | 6345 ft | 249 kts | 306° |
| 2026-04-22 15:06 | 60.35895 | 24.62453 | 7182 ft | 245 kts | 312° |
| 2026-04-22 15:07 | 60.37200 | 24.60279 | 7713 ft | 245 kts | 340° |
| 2026-04-22 15:07 | 60.38841 | 24.59525 | 8615 ft | 239 kts | 351° |
| 2026-04-22 15:07 | 60.40482 | 24.59064 | 9464 ft | 237 kts | 353° |
| 2026-04-22 15:07 | 60.42120 | 24.58655 | 10179 ft | 239 kts | 352° |
| 2026-04-22 15:08 | 60.43813 | 24.58168 | 10528 ft | 255 kts | 351° |
| 2026-04-22 15:08 | 60.45646 | 24.57645 | 10694 ft | 277 kts | 351° |
| 2026-04-22 15:08 | 60.47625 | 24.57074 | 10906 ft | 295 kts | 351° |
| 2026-04-22 15:08 | 60.49685 | 24.56460 | 11447 ft | 302 kts | 351° |
| 2026-04-22 15:09 | 60.51742 | 24.55830 | 12162 ft | 303 kts | 350° |
| 2026-04-22 15:09 | 60.53828 | 24.55180 | 12924 ft | 304 kts | 350° |
| 2026-04-22 15:09 | 60.55930 | 24.54515 | 13664 ft | 307 kts | 350° |
| 2026-04-22 15:09 | 60.58030 | 24.53847 | 14548 ft | 302 kts | 349° |
| 2026-04-22 15:10 | 60.60106 | 24.53183 | 15323 ft | 303 kts | 349° |
| 2026-04-22 15:10 | 60.62198 | 24.52510 | 15984 ft | 306 kts | 349° |
| 2026-04-22 15:10 | 60.64304 | 24.51832 | 16693 ft | 307 kts | 349° |
| 2026-04-22 15:10 | 60.66432 | 24.51145 | 17216 ft | 313 kts | 349° |
| 2026-04-22 15:11 | 60.68588 | 24.50449 | 17868 ft | 315 kts | 349° |
| 2026-04-22 15:11 | 60.70749 | 24.49653 | 18468 ft | 316 kts | 343° |
| 2026-04-22 15:11 | 60.72744 | 24.47691 | 18987 ft | 323 kts | 329° |
| 2026-04-22 15:11 | 60.74511 | 24.44806 | 19544 ft | 330 kts | 321° |
| 2026-04-22 15:12 | 60.75972 | 24.41087 | 20057 ft | 344 kts | 308° |
| 2026-04-22 15:12 | 60.77068 | 24.36662 | 20589 ft | 351 kts | 303° |
| 2026-04-22 15:12 | 60.78082 | 24.32077 | 21073 ft | 356 kts | 302° |
| 2026-04-22 15:12 | 60.79082 | 24.27400 | 21555 ft | 360 kts | 302° |
| 2026-04-22 15:13 | 60.80089 | 24.22669 | 22041 ft | 364 kts | 302° |
| 2026-04-22 15:13 | 60.81108 | 24.17905 | 22516 ft | 367 kts | 302° |
| 2026-04-22 15:13 | 60.81792 | 24.14724 | 22838 ft | 369 kts | 302° |
| 2026-04-22 15:13 | 60.83190 | 24.08252 | 23432 ft | 373 kts | 302° |
| 2026-04-22 15:14 | 60.83891 | 24.05015 | 23682 ft | 375 kts | 303° |
| 2026-04-22 15:14 | 60.84955 | 24.00102 | 24064 ft | 378 kts | 303° |
| 2026-04-22 15:14 | 60.86028 | 23.95147 | 24359 ft | 383 kts | 302° |
| 2026-04-22 15:14 | 60.87116 | 23.90118 | 24649 ft | 387 kts | 302° |
| 2026-04-22 15:15 | 60.88210 | 23.85043 | 25037 ft | 390 kts | 302° |
| 2026-04-22 15:15 | 60.89308 | 23.79936 | 25423 ft | 392 kts | 302° |
| 2026-04-22 15:15 | 60.90408 | 23.74809 | 25779 ft | 394 kts | 302° |
| 2026-04-22 15:15 | 60.91518 | 23.69623 | 26141 ft | 397 kts | 302° |
| 2026-04-22 15:16 | 60.92633 | 23.64401 | 26454 ft | 400 kts | 302° |
| 2026-04-22 15:16 | 60.93755 | 23.59135 | 26794 ft | 403 kts | 302° |
| 2026-04-22 15:16 | 60.94878 | 23.53848 | 27148 ft | 405 kts | 302° |
| 2026-04-22 15:16 | 60.96001 | 23.48542 | 27616 ft | 404 kts | 303° |
| 2026-04-22 15:17 | 60.97103 | 23.43318 | 28104 ft | 402 kts | 303° |
| 2026-04-22 15:17 | 60.98218 | 23.38023 | 28565 ft | 402 kts | 303° |
| 2026-04-22 15:17 | 60.99331 | 23.32736 | 28839 ft | 404 kts | 303° |
| 2026-04-22 15:17 | 61.00455 | 23.27390 | 29101 ft | 408 kts | 303° |
| 2026-04-22 15:18 | 61.01580 | 23.22012 | 29588 ft | 407 kts | 303° |
| 2026-04-22 15:18 | 61.02694 | 23.16667 | 30108 ft | 403 kts | 303° |
| 2026-04-22 15:18 | 61.03800 | 23.11350 | 30499 ft | 403 kts | 303° |
| 2026-04-22 15:18 | 61.04891 | 23.06013 | 30815 ft | 405 kts | 302° |
| 2026-04-22 15:19 | 61.05897 | 23.00560 | 31149 ft | 407 kts | 300° |
| 2026-04-22 15:19 | 61.06850 | 22.95058 | 31542 ft | 407 kts | 300° |
| 2026-04-22 15:19 | 61.07771 | 22.89616 | 31842 ft | 408 kts | 300° |
| 2026-04-22 15:19 | 61.08712 | 22.84047 | 31823 ft | 412 kts | 299° |
| 2026-04-22 15:20 | 61.10599 | 22.72885 | 31782 ft | 409 kts | 299° |
| 2026-04-22 15:20 | 61.12473 | 22.61817 | 31846 ft | 408 kts | 300° |
| 2026-04-22 15:21 | 61.14362 | 22.50693 | 31858 ft | 411 kts | 299° |
| 2026-04-22 15:21 | 61.16259 | 22.39461 | 31862 ft | 414 kts | 299° |
| 2026-04-22 15:22 | 61.18155 | 22.28157 | 31859 ft | 415 kts | 299° |
| 2026-04-22 15:22 | 61.20039 | 22.16837 | 31871 ft | 415 kts | 299° |
| 2026-04-22 15:23 | 61.21896 | 22.05607 | 31835 ft | 412 kts | 299° |
| 2026-04-22 15:23 | 61.23744 | 21.94368 | 31861 ft | 410 kts | 299° |
| 2026-04-22 15:24 | 61.25577 | 21.83160 | 31874 ft | 409 kts | 299° |
| 2026-04-22 15:24 | 61.27395 | 21.71978 | 31871 ft | 408 kts | 299° |
| 2026-04-22 15:25 | 61.29202 | 21.60798 | 31879 ft | 408 kts | 298° |
| 2026-04-22 15:25 | 61.31002 | 21.49593 | 31905 ft | 408 kts | 298° |
| 2026-04-22 15:26 | 61.32793 | 21.38374 | 31869 ft | 408 kts | 298° |
| 2026-04-22 15:26 | 61.34562 | 21.27214 | 31894 ft | 410 kts | 298° |
| 2026-04-22 15:27 | 61.36344 | 21.15907 | 31906 ft | 411 kts | 298° |
| 2026-04-22 15:27 | 61.38125 | 21.04534 | 31904 ft | 413 kts | 298° |
| 2026-04-22 15:28 | 61.39901 | 20.93110 | 31902 ft | 415 kts | 297° |
| 2026-04-22 15:28 | 61.41678 | 20.81602 | 31910 ft | 416 kts | 297° |
| 2026-04-22 15:29 | 61.43445 | 20.70080 | 31909 ft | 416 kts | 297° |
| 2026-04-22 15:30 | 61.46063 | 20.52870 | 31917 ft | 416 kts | 297° |
| 2026-04-22 15:30 | 61.47802 | 20.41345 | 31916 ft | 415 kts | 297° |
| 2026-04-22 15:31 | 61.49526 | 20.29843 | 31934 ft | 414 kts | 297° |
| 2026-04-22 15:31 | 61.51238 | 20.18345 | 31930 ft | 413 kts | 297° |
| 2026-04-22 15:32 | 61.52936 | 20.06859 | 31919 ft | 412 kts | 297° |
| 2026-04-22 15:32 | 61.54623 | 19.95377 | 31932 ft | 412 kts | 297° |
| 2026-04-22 15:33 | 61.56303 | 19.83872 | 31951 ft | 413 kts | 296° |
| 2026-04-22 15:33 | 61.57977 | 19.72329 | 31949 ft | 414 kts | 296° |
| 2026-04-22 15:34 | 61.59648 | 19.60720 | 31945 ft | 415 kts | 296° |
| 2026-04-22 15:34 | 61.61183 | 19.49983 | 31954 ft | 416 kts | 296° |
| 2026-04-22 15:35 | 61.62838 | 19.38317 | 31945 ft | 416 kts | 296° |
| 2026-04-22 15:35 | 61.64489 | 19.26603 | 31958 ft | 417 kts | 296° |
| 2026-04-22 15:36 | 61.66128 | 19.14896 | 31964 ft | 418 kts | 296° |
| 2026-04-22 15:36 | 61.67762 | 19.03136 | 31978 ft | 418 kts | 295° |
| 2026-04-22 15:37 | 61.69385 | 18.91371 | 31975 ft | 418 kts | 295° |
| 2026-04-22 15:37 | 61.70989 | 18.79657 | 31971 ft | 418 kts | 295° |
| 2026-04-22 15:38 | 61.72589 | 18.67874 | 31978 ft | 417 kts | 295° |
| 2026-04-22 15:38 | 61.74970 | 18.50205 | 31997 ft | 417 kts | 295° |
| 2026-04-22 15:39 | 61.76545 | 18.38414 | 31995 ft | 417 kts | 295° |
| 2026-04-22 15:39 | 61.78110 | 18.26601 | 31995 ft | 417 kts | 295° |
| 2026-04-22 15:40 | 61.79666 | 18.14766 | 32005 ft | 418 kts | 294° |
| 2026-04-22 15:40 | 61.81199 | 18.03015 | 31999 ft | 417 kts | 294° |
| 2026-04-22 15:41 | 61.82732 | 17.91175 | 32004 ft | 417 kts | 294° |
| 2026-04-22 15:41 | 61.84260 | 17.79293 | 32007 ft | 418 kts | 294° |
| 2026-04-22 15:42 | 61.85778 | 17.67389 | 32032 ft | 419 kts | 294° |
| 2026-04-22 15:42 | 61.87292 | 17.55428 | 32019 ft | 420 kts | 294° |
| 2026-04-22 15:43 | 61.88797 | 17.43443 | 32021 ft | 421 kts | 294° |
| 2026-04-22 15:43 | 61.90279 | 17.31530 | 32028 ft | 421 kts | 293° |
| 2026-04-22 15:44 | 61.91765 | 17.19506 | 32041 ft | 421 kts | 293° |
| 2026-04-22 15:44 | 61.93242 | 17.07462 | 32058 ft | 422 kts | 293° |
| 2026-04-22 15:45 | 61.94712 | 16.95375 | 32047 ft | 423 kts | 293° |
| 2026-04-22 15:45 | 61.96172 | 16.83264 | 32065 ft | 423 kts | 292° |
| 2026-04-22 15:46 | 61.97612 | 16.71220 | 32024 ft | 423 kts | 292° |
| 2026-04-22 15:46 | 61.99047 | 16.59120 | 32073 ft | 422 kts | 292° |
| 2026-04-22 15:47 | 62.00470 | 16.47017 | 32087 ft | 422 kts | 292° |
| 2026-04-22 15:47 | 62.01883 | 16.34900 | 32087 ft | 422 kts | 292° |
| 2026-04-22 15:48 | 62.03289 | 16.22750 | 32101 ft | 422 kts | 291° |
| 2026-04-22 15:48 | 62.04683 | 16.10593 | 32097 ft | 423 kts | 291° |
| 2026-04-22 15:49 | 62.06067 | 15.98419 | 32094 ft | 422 kts | 291° |
| 2026-04-22 15:49 | 62.07439 | 15.86247 | 32111 ft | 422 kts | 291° |
| 2026-04-22 15:50 | 62.08803 | 15.74034 | 32135 ft | 423 kts | 291° |
| 2026-04-22 15:50 | 62.10151 | 15.61876 | 32126 ft | 424 kts | 290° |
| 2026-04-22 15:51 | 62.11499 | 15.49590 | 32128 ft | 426 kts | 290° |
| 2026-04-22 15:51 | 62.12840 | 15.37267 | 32132 ft | 426 kts | 290° |
| 2026-04-22 15:52 | 62.14170 | 15.24918 | 32124 ft | 426 kts | 290° |
| 2026-04-22 15:52 | 62.15493 | 15.12535 | 32137 ft | 427 kts | 290° |
| 2026-04-22 15:53 | 62.16807 | 15.00121 | 32142 ft | 429 kts | 289° |
| 2026-04-22 15:53 | 62.18138 | 14.87480 | 32168 ft | 442 kts | 289° |
| 2026-04-22 15:54 | 62.19493 | 14.74464 | 32161 ft | 453 kts | 289° |
| 2026-04-22 15:54 | 62.20849 | 14.61241 | 32116 ft | 454 kts | 288° |
| 2026-04-22 15:55 | 62.22189 | 14.48012 | 32153 ft | 454 kts | 288° |
| 2026-04-22 15:55 | 62.23511 | 14.34864 | 32161 ft | 454 kts | 288° |
| 2026-04-22 15:56 | 62.24831 | 14.21616 | 32167 ft | 454 kts | 288° |
| 2026-04-22 15:56 | 62.26141 | 14.08334 | 32171 ft | 455 kts | 288° |
| 2026-04-22 15:57 | 62.27439 | 13.95040 | 32190 ft | 455 kts | 288° |
| 2026-04-22 15:57 | 62.28726 | 13.81702 | 32173 ft | 456 kts | 288° |
| 2026-04-22 15:58 | 62.29999 | 13.68369 | 32195 ft | 456 kts | 288° |
| 2026-04-22 15:58 | 62.31261 | 13.55015 | 32206 ft | 456 kts | 287° |
| 2026-04-22 15:59 | 62.32513 | 13.41615 | 32207 ft | 457 kts | 287° |
| 2026-04-22 15:59 | 62.33749 | 13.28229 | 32217 ft | 456 kts | 287° |
| 2026-04-22 16:00 | 62.34972 | 13.14833 | 32231 ft | 455 kts | 287° |
| 2026-04-22 16:00 | 62.36183 | 13.01430 | 32234 ft | 456 kts | 286° |
| 2026-04-22 16:01 | 62.37382 | 12.88000 | 32250 ft | 457 kts | 286° |
| 2026-04-22 16:01 | 62.38570 | 12.74540 | 32249 ft | 458 kts | 286° |
| 2026-04-22 16:02 | 62.39163 | 12.67773 | 32027 ft | 461 kts | 286° |
| 2026-04-22 16:02 | 62.39747 | 12.61061 | 31799 ft | 460 kts | 286° |
| 2026-04-22 16:02 | 62.40330 | 12.54295 | 31542 ft | 459 kts | 286° |
| 2026-04-22 16:02 | 62.40913 | 12.47513 | 31268 ft | 461 kts | 285° |
| 2026-04-22 16:03 | 62.41496 | 12.40702 | 30873 ft | 462 kts | 285° |
| 2026-04-22 16:03 | 62.42077 | 12.33878 | 30145 ft | 462 kts | 285° |
| 2026-04-22 16:03 | 62.42662 | 12.27125 | 29605 ft | 454 kts | 289° |
| 2026-04-22 16:03 | 62.43803 | 12.20945 | 28922 ft | 436 kts | 308° |
| 2026-04-22 16:04 | 62.45714 | 12.16030 | 28338 ft | 421 kts | 322° |
| 2026-04-22 16:04 | 62.48017 | 12.12236 | 27578 ft | 414 kts | 333° |
| 2026-04-22 16:04 | 62.50655 | 12.09742 | 26526 ft | 416 kts | 345° |
| 2026-04-22 16:04 | 62.52530 | 12.08544 | 25991 ft | 416 kts | 346° |
| 2026-04-22 16:05 | 62.55280 | 12.06890 | 25356 ft | 413 kts | 347° |
| 2026-04-22 16:05 | 62.58035 | 12.05266 | 24804 ft | 408 kts | 347° |
| 2026-04-22 16:05 | 62.60781 | 12.03636 | 23816 ft | 412 kts | 346° |
| 2026-04-22 16:05 | 62.63572 | 12.01956 | 22681 ft | 418 kts | 346° |
| 2026-04-22 16:06 | 62.66361 | 12.00249 | 21873 ft | 414 kts | 346° |
| 2026-04-22 16:06 | 62.69110 | 11.98547 | 21245 ft | 407 kts | 345° |
| 2026-04-22 16:06 | 62.71814 | 11.96860 | 20507 ft | 403 kts | 345° |
| 2026-04-22 16:06 | 62.74507 | 11.95174 | 19553 ft | 405 kts | 345° |
| 2026-04-22 16:07 | 62.77223 | 11.93469 | 18736 ft | 405 kts | 345° |
| 2026-04-22 16:07 | 62.79904 | 11.91781 | 18198 ft | 396 kts | 345° |
| 2026-04-22 16:07 | 62.82491 | 11.90149 | 17561 ft | 389 kts | 345° |
| 2026-04-22 16:07 | 62.85088 | 11.88508 | 16881 ft | 385 kts | 345° |
| 2026-04-22 16:08 | 62.87649 | 11.86888 | 16114 ft | 384 kts | 345° |
| 2026-04-22 16:08 | 62.90200 | 11.85272 | 15508 ft | 379 kts | 345° |
| 2026-04-22 16:08 | 62.92708 | 11.83679 | 15020 ft | 371 kts | 345° |
| 2026-04-22 16:08 | 62.95184 | 11.82105 | 14317 ft | 370 kts | 345° |
| 2026-04-22 16:09 | 62.97650 | 11.80535 | 13573 ft | 369 kts | 345° |
| 2026-04-22 16:09 | 63.00101 | 11.78970 | 12932 ft | 364 kts | 345° |
| 2026-04-22 16:09 | 63.02514 | 11.77427 | 12341 ft | 359 kts | 345° |
| 2026-04-22 16:09 | 63.04896 | 11.75901 | 11767 ft | 354 kts | 345° |
| 2026-04-22 16:10 | 63.07259 | 11.74385 | 11050 ft | 353 kts | 344° |
| 2026-04-22 16:10 | 63.09613 | 11.72873 | 10547 ft | 348 kts | 344° |
| 2026-04-22 16:10 | 63.11886 | 11.71409 | 10423 ft | 332 kts | 344° |
| 2026-04-22 16:10 | 63.14047 | 11.70014 | 10302 ft | 316 kts | 344° |
| 2026-04-22 16:11 | 63.16114 | 11.68679 | 10197 ft | 302 kts | 344° |
| 2026-04-22 16:11 | 63.18093 | 11.67400 | 10087 ft | 289 kts | 344° |
| 2026-04-22 16:11 | 63.19951 | 11.66199 | 9931 ft | 273 kts | 344° |
| 2026-04-22 16:11 | 63.21709 | 11.65057 | 9848 ft | 254 kts | 344° |
| 2026-04-22 16:12 | 63.23370 | 11.63979 | 9600 ft | 244 kts | 344° |
| 2026-04-22 16:12 | 63.24970 | 11.62941 | 9270 ft | 236 kts | 343° |
| 2026-04-22 16:12 | 63.26546 | 11.61918 | 8801 ft | 235 kts | 343° |
| 2026-04-22 16:12 | 63.28115 | 11.60896 | 8361 ft | 234 kts | 342° |
| 2026-04-22 16:13 | 63.29678 | 11.59876 | 7915 ft | 234 kts | 342° |
| 2026-04-22 16:13 | 63.31237 | 11.58859 | 7664 ft | 233 kts | 342° |
| 2026-04-22 16:13 | 63.32786 | 11.57847 | 7407 ft | 231 kts | 342° |
| 2026-04-22 16:13 | 63.34312 | 11.56847 | 7203 ft | 226 kts | 341° |
| 2026-04-22 16:14 | 63.35823 | 11.55851 | 6785 ft | 226 kts | 341° |
| 2026-04-22 16:14 | 63.37337 | 11.54863 | 6387 ft | 228 kts | 340° |
| 2026-04-22 16:14 | 63.38827 | 11.53868 | 6364 ft | 220 kts | 339° |
| 2026-04-22 16:14 | 63.40256 | 11.52765 | 6214 ft | 214 kts | 337° |
| 2026-04-22 16:15 | 63.41642 | 11.51669 | 5970 ft | 210 kts | 337° |
| 2026-04-22 16:15 | 63.43015 | 11.50597 | 5783 ft | 208 kts | 335° |
| 2026-04-22 16:15 | 63.44290 | 11.49164 | 5502 ft | 206 kts | 319° |
| 2026-04-22 16:15 | 63.45197 | 11.46760 | 5314 ft | 203 kts | 297° |
| 2026-04-22 16:16 | 63.45518 | 11.43703 | 5116 ft | 205 kts | 275° |
| 2026-04-22 16:16 | 63.45584 | 11.40502 | 4829 ft | 206 kts | 276° |
| 2026-04-22 16:16 | 63.45632 | 11.37338 | 4617 ft | 207 kts | 274° |
| 2026-04-22 16:16 | 63.45659 | 11.34127 | 4291 ft | 206 kts | 274° |
| 2026-04-22 16:17 | 63.45683 | 11.30945 | 3974 ft | 202 kts | 275° |
| 2026-04-22 16:17 | 63.45732 | 11.27736 | 3558 ft | 208 kts | 274° |
| 2026-04-22 16:17 | 63.45749 | 11.24646 | 3239 ft | 190 kts | 272° |
| 2026-04-22 16:17 | 63.45741 | 11.21765 | 2893 ft | 182 kts | 273° |
| 2026-04-22 16:18 | 63.45742 | 11.19000 | 2598 ft | 176 kts | 273° |
| 2026-04-22 16:18 | 63.45743 | 11.16395 | 2415 ft | 162 kts | 274° |
| 2026-04-22 16:18 | 63.45742 | 11.13918 | 2173 ft | 156 kts | 272° |
| 2026-04-22 16:18 | 63.45742 | 11.11519 | 1869 ft | 150 kts | 273° |
| 2026-04-22 16:19 | 63.45741 | 11.09284 | 1674 ft | 141 kts | 273° |
| 2026-04-22 16:19 | 63.45743 | 11.07113 | 1418 ft | 137 kts | 272° |
| 2026-04-22 16:19 | 63.45748 | 11.04987 | 1185 ft | 137 kts | 271° |
| 2026-04-22 16:19 | 63.45753 | 11.02822 | 979 ft | 140 kts | 270° |
| 2026-04-22 16:20 | 63.45749 | 11.00702 | 794 ft | 138 kts | 269° |
| 2026-04-22 16:20 | 63.45753 | 10.98585 | 569 ft | 134 kts | 268° |
| 2026-04-22 16:20 | 63.45749 | 10.96513 | 364 ft | 133 kts | 270° |
| 2026-04-22 16:20 | 63.45755 | 10.94465 | 137 ft | 131 kts | 269° |
| 2026-04-22 16:21 | 63.45760 | 10.92446 | 45 ft | 127 kts | 269° |
| 2026-04-22 16:21 | 63.45761 | 10.90834 | 33 ft | 61 kts | 270° |
| 2026-04-22 16:21 | 63.45744 | 10.90497 | 31 ft | 10 kts | 213° |
| 2026-04-22 16:21 | 63.45686 | 10.90409 | 31 ft | 10 kts | 212° |
| 2026-04-22 16:22 | 63.45598 | 10.90509 | 32 ft | 10 kts | 91° |
| 2026-04-22 16:22 | 63.45598 | 10.90661 | 33 ft | 11 kts | 90° |
| 2026-04-22 16:22 | 63.45596 | 10.90862 | 32 ft | 14 kts | 95° |
| 2026-04-22 16:23 | 63.45597 | 10.91208 | 35 ft | 0 kts | 91° |
| 2026-04-22 16:24 | 63.45597 | 10.91225 | 35 ft | 4 kts | 90° |
| 2026-04-22 16:25 | 63.45597 | 10.91317 | 36 ft | 7 kts | 90° |
| 2026-04-22 16:25 | 63.45556 | 10.91485 | 38 ft | 7 kts | 177° |
| 2026-04-22 16:25 | 63.45511 | 10.91485 | 38 ft | 4 kts | 181° |
| 2026-04-22 16:26 | 63.45502 | 10.91485 | 38 ft | 0 kts | 180° |
| 2026-04-22 16:26 | 63.45501 | 10.91485 | 38 ft | 0 kts | 180° |